Time;durP1;ratioP1;P1;durP2;ratioP2;P2;SDS_P1;SDS_P2;PMS_P1;PMS_P2;Temp;Humidity;BMP_temperature;BMP_pressure;BME280_temperature;BME280_humidity;BME280_pressure;Samples;Min_cycle;Max_cycle;Signal;HPM_P1;HPM_P2
2022/07/11 07:48:50;;;;;;;0.98;0.20;;;24.30;99.90;;;;;;5099757;27;20682;-70
2022/07/11 07:51:15;;;;;;;0.73;0.20;;;23.60;99.90;;;;;;5099868;28;20065;-70
2022/07/11 07:53:41;;;;;;;2.97;0.28;;;23.20;99.90;;;;;;5099528;28;20035;-67
2022/07/11 07:56:07;;;;;;;0.38;0.20;;;22.90;99.90;;;;;;5100051;28;20089;-69
2022/07/11 07:58:33;;;;;;;4.78;0.30;;;22.60;99.90;;;;;;5099570;28;20603;-70
2022/07/11 08:03:42;;;;;;;1.60;0.30;;;22.10;99.90;;;;;;5099561;28;20043;-70
2022/07/11 08:06:08;;;;;;;0.40;0.30;;;21.90;99.90;;;;;;5099746;28;20097;-68
2022/07/11 08:08:34;;;;;;;0.43;0.30;;;21.80;99.90;;;;;;5099128;28;20040;-58
2022/07/11 08:11:01;;;;;;;0.65;0.20;;;40.70;99.70;;;;;;5098836;28;20101;-60
2022/07/11 08:13:28;;;;;;;2.20;0.30;;;29.50;99.90;;;;;;5099304;28;20641;-60
2022/07/11 08:15:54;;;;;;;2.75;0.30;;;25.50;99.90;;;;;;5099141;28;20073;-60
2022/07/11 08:18:20;;;;;;;0.22;0.20;;;23.70;99.90;;;;;;5098434;28;20169;-58
2022/07/11 08:20:45;;;;;;;2.03;0.20;;;22.90;99.90;;;;;;5099498;28;20075;-58
2022/07/11 08:23:12;;;;;;;1.05;0.20;;;22.40;99.90;;;;;;5099725;28;20054;-57
2022/07/11 08:25:39;;;;;;;1.25;0.20;;;22.10;99.90;;;;;;5098838;28;20048;-57
2022/07/11 08:28:05;;;;;;;0.30;0.20;;;21.90;99.90;;;;;;5098351;28;20071;-60
2022/07/11 08:30:31;;;;;;;0.98;0.25;;;21.80;99.90;;;;;;5098458;28;20486;-58
2022/07/11 08:32:58;;;;;;;0.40;0.20;;;21.80;99.90;;;;;;5099380;28;20537;-58
2022/07/11 08:35:24;;;;;;;0.55;0.30;;;21.80;99.90;;;;;;5098433;28;20039;-60
2022/07/11 08:37:50;;;;;;;1.55;0.20;;;21.80;99.90;;;;;;5097572;28;20127;-62
2022/07/11 08:40:15;;;;;;;1.20;0.20;;;21.80;99.90;;;;;;5099074;28;20115;-60
2022/07/11 08:42:43;;;;;;;1.17;0.25;;;21.90;99.90;;;;;;5099627;28;20106;-62
2022/07/11 08:45:14;;;;;;;1.35;0.20;;;21.80;99.90;;;;;;5091378;28;20495;-62
2022/07/11 08:47:40;;;;;;;0.88;0.40;;;21.70;99.90;;;;;;5089594;28;20055;-59
2022/07/11 08:50:07;;;;;;;0.77;0.30;;;21.70;99.90;;;;;;5099093;28;20036;-61
2022/07/11 08:52:33;;;;;;;1.02;0.30;;;21.60;99.90;;;;;;5097174;28;20072;-58
2022/07/11 08:54:59;;;;;;;1.80;0.38;;;21.50;99.90;;;;;;5090422;28;20047;-58
2022/07/11 08:57:25;;;;;;;5.28;0.30;;;21.50;99.90;;;;;;5093140;28;20036;-61
2022/07/11 08:59:57;;;;;;;1.80;0.28;;;21.50;99.90;;;;;;5084332;28;20614;-62
2022/07/11 09:02:24;;;;;;;1.95;0.40;;;21.50;99.90;;;;;;5084116;28;20040;-60
2022/07/11 09:04:50;;;;;;;1.80;0.40;;;21.50;99.90;;;;;;5084205;28;20047;-59
2022/07/11 09:07:16;;;;;;;1.55;0.20;;;21.50;99.90;;;;;;5084594;28;20624;-60
2022/07/11 09:09:41;;;;;;;0.47;0.30;;;21.50;99.90;;;;;;5084566;28;20040;-59
2022/07/11 09:12:12;;;;;;;0.93;0.35;;;21.60;99.90;;;;;;5083238;28;20079;-59
2022/07/11 09:14:38;;;;;;;1.73;0.30;;;21.70;99.90;;;;;;5083273;28;20142;-60
2022/07/11 09:17:05;;;;;;;0.17;0.17;;;21.70;99.90;;;;;;5083980;28;20032;-58
2022/07/11 09:19:33;;;;;;;1.13;0.35;;;21.70;99.90;;;;;;5083517;28;20496;-58
2022/07/11 09:25:23;;;;;;;3.40;0.20;;;21.60;99.90;;;;;;5080740;28;20044;-60
2022/07/11 09:28:04;;;;;;;1.08;0.20;;;21.60;99.90;;;;;;5083016;28;20123;-59
2022/07/11 09:30:31;;;;;;;0.47;0.20;;;21.50;99.90;;;;;;5083747;28;20036;-61
2022/07/11 09:33:05;;;;;;;0.47;0.20;;;21.50;99.90;;;;;;5084026;28;20134;-60
2022/07/11 09:35:34;;;;;;;0.75;0.20;;;21.50;99.90;;;;;;5088476;28;20048;-60
2022/07/11 09:38:04;;;;;;;5.00;0.28;;;21.50;99.90;;;;;;5083661;28;20075;-60
2022/07/11 09:40:30;;;;;;;0.77;0.30;;;21.50;99.90;;;;;;5081389;28;20051;-59
2022/07/11 09:42:58;;;;;;;1.85;0.47;;;21.60;99.90;;;;;;5083660;28;20442;-62
2022/07/11 09:45:30;;;;;;;2.50;0.20;;;21.60;99.90;;;;;;5075862;28;20603;-60
2022/07/11 09:48:10;;;;;;;1.92;0.38;;;21.60;99.90;;;;;;5063356;28;20139;-59
2022/07/11 09:50:36;;;;;;;2.00;0.20;;;23.90;99.90;;;;;;5062656;28;20186;-61
2022/07/11 09:53:10;;;;;;;2.63;0.40;;;22.80;99.90;;;;;;5063614;28;20129;-64
2022/07/11 09:55:37;;;;;;;4.53;0.40;;;22.20;99.90;;;;;;5063485;28;20072;-63
2022/07/11 09:58:08;;;;;;;3.22;0.40;;;21.80;99.90;;;;;;5075486;28;20036;-65
2022/07/11 10:00:35;;;;;;;1.95;0.20;;;21.70;99.90;;;;;;5081755;28;20044;-63
2022/07/11 10:03:02;;;;;;;1.38;0.30;;;21.70;99.90;;;;;;5083402;28;20043;-63
2022/07/11 10:05:28;;;;;;;1.60;0.35;;;21.70;99.90;;;;;;5081950;28;20100;-63
2022/07/11 10:07:55;;;;;;;2.03;0.30;;;21.60;99.90;;;;;;5080900;28;20036;-64
2022/07/11 10:10:21;;;;;;;1.20;0.40;;;21.60;99.90;;;;;;5082139;28;20189;-63
2022/07/11 10:12:47;;;;;;;2.78;0.50;;;21.50;99.90;;;;;;5083206;28;20047;-64
2022/07/11 10:15:29;;;;;;;0.93;0.30;;;21.50;99.90;;;;;;5082589;28;20060;-63
2022/07/11 10:17:57;;;;;;;2.33;0.40;;;21.50;99.90;;;;;;5061782;28;20040;-62
2022/07/11 10:20:35;;;;;;;2.70;0.40;;;21.50;99.90;;;;;;5078816;28;20760;-62
2022/07/11 10:23:22;;;;;;;3.80;0.68;;;21.50;99.90;;;;;;5063216;28;20043;-62
2022/07/11 10:26:17;;;;;;;0.73;0.30;;;21.50;99.90;;;;;;5063160;28;20097;-62
2022/07/11 10:28:48;;;;;;;3.97;0.40;;;21.50;99.90;;;;;;5061689;28;20048;-62
2022/07/11 10:31:23;;;;;;;2.63;0.30;;;21.50;99.90;;;;;;5063212;28;20047;-61
2022/07/11 10:34:05;;;;;;;2.97;0.40;;;21.60;99.90;;;;;;5062815;28;20044;-62
2022/07/11 10:36:33;;;;;;;1.98;0.35;;;21.60;99.90;;;;;;5062689;28;20052;-62
2022/07/11 10:39:24;;;;;;;3.10;0.35;;;21.60;99.90;;;;;;5061740;28;20051;-61
2022/07/11 10:41:51;;;;;;;0.95;0.50;;;21.60;99.90;;;;;;5063005;28;20406;-61
2022/07/11 10:44:17;;;;;;;0.90;0.30;;;21.60;99.90;;;;;;5063521;28;20171;-61
2022/07/11 10:46:43;;;;;;;6.47;0.47;;;21.60;99.90;;;;;;5060180;28;20541;-59
2022/07/11 10:49:23;;;;;;;2.13;0.40;;;21.60;99.90;;;;;;5082711;28;20055;-61
2022/07/11 10:51:52;;;;;;;1.33;0.52;;;21.60;99.90;;;;;;5082577;28;20447;-62
2022/07/11 10:54:42;;;;;;;1.58;0.40;;;21.60;99.90;;;;;;5081397;28;20077;-62
2022/07/11 10:57:17;;;;;;;5.25;0.80;;;21.70;99.90;;;;;;5082253;28;20083;-61
2022/07/11 11:00:00;;;;;;;3.38;1.13;;;21.60;99.90;;;;;;5082611;28;20075;-61
2022/07/11 11:02:27;;;;;;;3.17;0.60;;;21.60;99.90;;;;;;5081843;28;20126;-62
2022/07/11 11:04:58;;;;;;;4.10;0.60;;;21.80;99.90;;;;;;5082498;28;20044;-62
2022/07/11 11:07:27;;;;;;;3.45;0.60;;;21.80;99.90;;;;;;5082342;28;20048;-62
2022/07/11 11:09:52;;;;;;;1.55;0.50;;;21.90;99.90;;;;;;5081144;28;20158;-62
2022/07/11 11:12:18;;;;;;;1.73;0.50;;;21.90;99.90;;;;;;5082200;28;20123;-61
2022/07/11 11:14:44;;;;;;;3.67;0.40;;;21.80;99.90;;;;;;5081980;28;20075;-61
2022/07/11 11:17:33;;;;;;;2.13;0.50;;;21.80;99.90;;;;;;5082199;28;20075;-61
2022/07/11 11:20:01;;;;;;;2.22;0.50;;;21.70;99.90;;;;;;5082228;28;20051;-61
2022/07/11 11:22:28;;;;;;;10.55;0.60;;;21.70;99.90;;;;;;5081874;28;20040;-61
2022/07/11 11:24:56;;;;;;;1.65;0.50;;;21.70;99.90;;;;;;5080370;28;20083;-61
2022/07/11 11:27:23;;;;;;;1.75;0.40;;;21.70;99.90;;;;;;5082001;28;20044;-62
2022/07/11 11:29:53;;;;;;;1.23;0.35;;;21.60;99.90;;;;;;5081199;28;20050;-61
2022/07/11 11:32:21;;;;;;;1.13;0.43;;;21.60;99.90;;;;;;5081756;28;20047;-61
2022/07/11 11:34:47;;;;;;;1.65;0.50;;;21.60;99.90;;;;;;5082108;28;20047;-61
2022/07/11 11:37:15;;;;;;;4.13;0.40;;;21.70;99.90;;;;;;5075695;28;20071;-60
2022/07/11 11:39:41;;;;;;;0.63;0.30;;;21.70;99.90;;;;;;5069209;28;20040;-62
2022/07/11 11:42:08;;;;;;;0.82;0.38;;;21.80;99.90;;;;;;5060299;28;20059;-61
2022/07/11 11:44:45;;;;;;;1.77;0.30;;;21.80;99.90;;;;;;5063969;28;20076;-62
2022/07/11 11:47:11;;;;;;;0.88;0.30;;;21.80;99.90;;;;;;5067019;28;20060;-62
2022/07/11 11:49:44;;;;;;;0.45;0.30;;;21.70;99.90;;;;;;5061356;28;20109;-62
2022/07/11 11:52:10;;;;;;;0.68;0.30;;;21.80;99.90;;;;;;5061660;28;20045;-62
2022/07/11 11:57:47;;;;;;;1.98;0.28;;;640.00;1152.00;;;;;;5113629;27;1948159;-63
2022/07/11 12:00:26;;;;;;;0.90;0.30;;;614.40;1126.40;;;;;;5160572;27;20067;-62
2022/07/11 12:02:52;;;;;;;1.45;0.25;;;588.80;1152.00;;;;;;5161275;27;20053;-62
2022/07/11 12:05:17;;;;;;;0.40;0.20;;;588.80;1331.20;;;;;;5160540;27;20035;-62
2022/07/11 12:07:44;;;;;;;3.13;0.65;;;588.80;1203.20;;;;;;5142621;27;20626;-57
2022/07/11 12:10:09;;;;;;;0.43;0.25;;;588.80;1305.60;;;;;;5161599;27;20038;-57
2022/07/11 12:12:44;;;;;;;2.92;0.30;;;588.80;1228.80;;;;;;5160965;27;20476;-57
2022/07/11 12:18:29;;;;;;;2.25;0.50;;;614.40;1408.00;;;;;;5074485;28;20053;-57
2022/07/11 12:20:56;;;;;;;4.70;0.60;;;588.80;1382.40;;;;;;5153849;27;20053;-58
2022/07/11 12:23:22;;;;;;;1.63;0.32;;;588.80;1331.20;;;;;;5161123;27;20047;-58
2022/07/11 12:25:52;;;;;;;2.03;0.60;;;588.80;1356.80;;;;;;5142005;27;20034;-58
2022/07/11 12:28:18;;;;;;;1.75;0.40;;;588.80;1305.60;;;;;;5159731;27;20042;-58
2022/07/11 12:30:43;;;;;;;2.78;0.30;;;563.20;1408.00;;;;;;5160524;27;20038;-57
2022/07/11 12:33:11;;;;;;;4.10;0.43;;;588.80;1408.00;;;;;;5161058;27;20484;-57
2022/07/11 12:35:55;;;;;;;0.75;0.30;;;588.80;1203.20;;;;;;5159316;27;20042;-58
2022/07/11 12:38:22;;;;;;;2.35;0.50;;;563.20;1228.80;;;;;;5141899;27;20047;-58
2022/07/11 12:41:04;;;;;;;2.10;0.30;;;588.80;1356.80;;;;;;5160649;27;20038;-58
2022/07/11 12:46:30;;;;;;;0.82;0.30;;;588.80;1331.20;;;;;;5147931;27;20143;-58
2022/07/11 12:48:59;;;;;;;0.80;0.30;;;588.80;1280.00;;;;;;5139202;27;20110;-59
2022/07/11 12:51:37;;;;;;;1.70;0.40;;;588.80;1203.20;;;;;;5120170;27;20213;-58
2022/07/11 12:54:05;;;;;;;1.13;0.30;;;588.80;1203.20;;;;;;5139736;27;20678;-58
2022/07/11 12:56:31;;;;;;;1.25;0.30;;;588.80;1280.00;;;;;;5120862;27;20489;-58
2022/07/11 12:59:01;;;;;;;1.73;0.43;;;588.80;1331.20;;;;;;5138624;27;20130;-59
2022/07/11 13:01:28;;;;;;;1.20;0.35;;;588.80;1408.00;;;;;;5139596;27;20072;-58
2022/07/11 13:03:53;;;;;;;1.42;0.45;;;588.80;1280.00;;;;;;5127621;27;20050;-58
2022/07/11 13:09:08;;;;;;;2.65;0.40;;;588.80;1305.60;;;;;;5087872;27;20116;-58
2022/07/11 13:11:34;;;;;;;3.45;0.55;;;640.00;1305.60;;;;;;5131422;27;20066;-57
2022/07/11 13:14:00;;;;;;;2.85;0.50;;;588.80;1280.00;;;;;;5129512;27;20055;-58
2022/07/11 13:16:26;;;;;;;1.20;0.40;;;588.80;1280.00;;;;;;5129382;27;20142;-58
2022/07/11 13:18:52;;;;;;;0.73;0.30;;;588.80;1305.60;;;;;;5130156;27;20078;-58
2022/07/11 13:21:18;;;;;;;1.48;0.40;;;588.80;1203.20;;;;;;5130540;27;20066;-58
2022/07/11 13:23:44;;;;;;;2.67;0.40;;;563.20;1305.60;;;;;;5130090;27;20070;-58
2022/07/11 13:26:11;;;;;;;1.40;0.50;;;563.20;1408.00;;;;;;5111683;27;20035;-57
2022/07/11 13:28:37;;;;;;;1.20;0.50;;;563.20;1408.00;;;;;;5129622;27;20086;-57
2022/07/11 13:31:06;;;;;;;0.73;0.50;;;563.20;1510.40;;;;;;5129951;27;20547;-58
2022/07/11 13:33:32;;;;;;;1.83;0.50;;;563.20;1254.40;;;;;;5129551;27;20053;-58
2022/07/11 13:35:58;;;;;;;1.42;0.30;;;563.20;1254.40;;;;;;5129887;27;20063;-58
2022/07/11 13:38:23;;;;;;;1.40;0.40;;;614.40;1305.60;;;;;;5129752;27;20074;-57
2022/07/11 13:40:49;;;;;;;2.10;0.40;;;563.20;1382.40;;;;;;5130187;27;20076;-57
2022/07/11 13:43:15;;;;;;;3.08;0.40;;;588.80;1331.20;;;;;;5129034;27;20063;-58
2022/07/11 13:45:44;;;;;;;2.05;0.50;;;588.80;1356.80;;;;;;5129517;27;20039;-57
2022/07/11 13:48:09;;;;;;;3.47;0.60;;;588.80;1382.40;;;;;;5129516;27;20047;-57
2022/07/11 13:50:35;;;;;;;0.93;0.50;;;588.80;1305.60;;;;;;5110943;27;20058;-56
2022/07/11 13:53:01;;;;;;;1.30;0.43;;;588.80;1382.40;;;;;;5129547;27;20031;-57
2022/07/11 13:55:29;;;;;;;3.10;0.63;;;563.20;1510.40;;;;;;5129353;27;20039;-57
2022/07/11 13:57:59;;;;;;;1.27;0.60;;;563.20;1408.00;;;;;;5132658;27;20043;-58
2022/07/11 14:00:26;;;;;;;1.10;0.43;;;563.20;1228.80;;;;;;5128111;27;20047;-58
2022/07/11 14:02:52;;;;;;;1.70;0.50;;;563.20;1305.60;;;;;;5128661;27;20043;-57
2022/07/11 14:05:18;;;;;;;1.55;0.40;;;563.20;1408.00;;;;;;5128949;27;20556;-58
2022/07/11 14:07:45;;;;;;;1.73;0.50;;;563.20;1254.40;;;;;;5129319;27;20035;-58
2022/07/11 14:10:11;;;;;;;2.92;0.60;;;563.20;1228.80;;;;;;5128830;27;20035;-58
2022/07/11 14:12:36;;;;;;;1.23;0.60;;;563.20;1331.20;;;;;;5126476;27;20656;-58
2022/07/11 14:15:02;;;;;;;2.38;0.88;;;563.20;1433.60;;;;;;5128765;27;20039;-58
2022/07/11 14:17:28;;;;;;;1.67;0.50;;;563.20;1305.60;;;;;;5127996;27;20204;-57
2022/07/11 14:19:55;;;;;;;1.80;0.60;;;563.20;1331.20;;;;;;5111880;27;20050;-58
2022/07/11 14:22:21;;;;;;;3.08;0.60;;;563.20;1510.40;;;;;;5128503;27;20091;-58
2022/07/11 14:24:47;;;;;;;2.65;0.80;;;563.20;1382.40;;;;;;5129715;27;20038;-58
2022/07/11 14:27:14;;;;;;;1.17;0.70;;;588.80;1408.00;;;;;;5127597;27;20114;-58
2022/07/11 14:29:43;;;;;;;2.92;0.85;;;563.20;1433.60;;;;;;5111206;27;20164;-57
2022/07/11 14:32:11;;;;;;;2.60;0.95;;;563.20;1408.00;;;;;;5128122;27;20070;-57
2022/07/11 14:34:37;;;;;;;2.17;0.98;;;563.20;1280.00;;;;;;5127149;27;20051;-57
2022/07/11 14:37:04;;;;;;;3.42;0.82;;;563.20;1331.20;;;;;;5127814;27;20042;-57
2022/07/11 14:39:31;;;;;;;2.95;0.82;;;563.20;1254.40;;;;;;5127794;27;20600;-57
2022/07/11 14:41:57;;;;;;;3.22;0.80;;;563.20;1382.40;;;;;;5127397;27;20095;-57
2022/07/11 14:44:23;;;;;;;1.83;0.77;;;588.80;1280.00;;;;;;5125482;27;20066;-57
2022/07/11 14:46:49;;;;;;;3.58;0.70;;;588.80;1382.40;;;;;;5128429;27;20112;-57
2022/07/11 14:49:14;;;;;;;4.78;0.80;;;563.20;1408.00;;;;;;5127546;27;20039;-58
2022/07/11 14:51:40;;;;;;;5.97;0.90;;;563.20;1331.20;;;;;;5128196;27;20096;-57
2022/07/11 14:54:06;;;;;;;4.68;1.05;;;563.20;1331.20;;;;;;5126669;27;20516;-58
2022/07/11 14:56:32;;;;;;;1.52;0.60;;;563.20;1228.80;;;;;;5126347;27;20057;-57
2022/07/11 14:58:57;;;;;;;1.63;0.60;;;588.80;1254.40;;;;;;5109727;27;20039;-58
2022/07/11 15:01:23;;;;;;;3.55;0.60;;;588.80;1356.80;;;;;;5127588;27;20448;-58
2022/07/11 15:03:49;;;;;;;2.42;0.60;;;563.20;1254.40;;;;;;5109502;27;20050;-57
2022/07/11 15:06:16;;;;;;;0.82;0.50;;;640.00;1280.00;;;;;;5129028;27;20051;-57
2022/07/11 15:14:12;;;;;;;;;;;588.80;1382.40;;;;;;5128251;27;20106;-57
2022/07/11 15:16:38;;;;;;;12.13;1.25;;;640.00;1203.20;;;;;;5110245;27;19923;-57
2022/07/11 15:19:05;;;;;;;5.97;1.10;;;588.80;1254.40;;;;;;5109925;27;20039;-58
2022/07/11 15:21:31;;;;;;;10.68;1.02;;;588.80;1331.20;;;;;;5127578;27;20649;-58
2022/07/11 15:23:58;;;;;;;7.47;0.90;;;588.80;1459.20;;;;;;5126831;27;20059;-58
2022/07/11 15:26:24;;;;;;;5.57;0.70;;;588.80;1280.00;;;;;;5127611;27;20308;-58
2022/07/11 15:28:50;;;;;;;7.68;0.90;;;588.80;1356.80;;;;;;5127140;27;20043;-58
2022/07/11 15:31:17;;;;;;;10.25;0.85;;;588.80;1254.40;;;;;;5127374;27;20038;-59
2022/07/11 15:33:43;;;;;;;10.27;0.95;;;563.20;1433.60;;;;;;5107583;27;20043;-58
2022/07/11 15:36:09;;;;;;;2.35;0.70;;;588.80;1305.60;;;;;;5128338;27;20042;-58
2022/07/11 15:38:35;;;;;;;5.95;0.80;;;588.80;1305.60;;;;;;5126846;27;20269;-58
2022/07/11 15:41:02;;;;;;;5.55;0.57;;;588.80;1356.80;;;;;;5128131;27;20528;-58
2022/07/11 15:43:29;;;;;;;4.25;0.65;;;588.80;1305.60;;;;;;5125110;27;20749;-58
2022/07/11 15:45:55;;;;;;;7.60;0.90;;;588.80;1433.60;;;;;;5128407;27;20042;-58
2022/07/11 15:48:21;;;;;;;7.63;0.85;;;588.80;1408.00;;;;;;5126427;27;20027;-58
2022/07/11 15:50:47;;;;;;;8.25;0.80;;;614.40;1305.60;;;;;;5127576;27;20038;-58
2022/07/11 15:53:13;;;;;;;1.77;0.50;;;563.20;1484.80;;;;;;5127924;27;20046;-58
2022/07/11 15:55:38;;;;;;;5.22;0.70;;;563.20;1356.80;;;;;;5129099;27;20043;-57
2022/07/11 15:58:04;;;;;;;2.83;0.60;;;563.20;1408.00;;;;;;5113221;27;20758;-57
2022/07/11 16:00:30;;;;;;;3.65;0.70;;;588.80;1510.40;;;;;;5132566;27;20069;-57
2022/07/11 16:02:56;;;;;;;3.30;0.75;;;588.80;1459.20;;;;;;5132602;27;20103;-59
2022/07/11 16:05:21;;;;;;;3.33;0.88;;;588.80;1408.00;;;;;;5133137;27;20505;-58
2022/07/11 16:07:48;;;;;;;4.47;0.82;;;588.80;1356.80;;;;;;5132471;27;20528;-58
2022/07/11 16:10:13;;;;;;;2.90;0.60;;;588.80;1228.80;;;;;;5115365;27;20047;-58
2022/07/11 16:12:39;;;;;;;3.83;0.63;;;588.80;1331.20;;;;;;5132810;27;20045;-58
2022/07/11 16:15:05;;;;;;;3.88;0.57;;;588.80;1280.00;;;;;;5129634;27;20549;-58
2022/07/11 16:17:31;;;;;;;1.77;0.70;;;588.80;1254.40;;;;;;5132164;27;20051;-57
2022/07/11 16:19:57;;;;;;;4.78;0.70;;;640.00;1305.60;;;;;;5132136;27;20117;-58
2022/07/11 16:22:23;;;;;;;3.45;0.68;;;588.80;1305.60;;;;;;5132829;27;20047;-58
2022/07/11 16:24:49;;;;;;;5.03;1.00;;;588.80;1356.80;;;;;;5132876;27;20035;-58
2022/07/11 16:27:14;;;;;;;2.63;0.75;;;588.80;1382.40;;;;;;5132447;27;20675;-57
2022/07/11 16:29:40;;;;;;;2.15;0.65;;;588.80;1356.80;;;;;;5132231;27;20118;-58
2022/07/11 16:32:06;;;;;;;5.03;0.82;;;563.20;1408.00;;;;;;5114817;27;20046;-57
2022/07/11 16:34:32;;;;;;;2.90;0.88;;;588.80;1433.60;;;;;;5132794;27;20043;-57
2022/07/11 16:36:58;;;;;;;3.90;0.80;;;640.00;1356.80;;;;;;5132460;27;20046;-58
2022/07/11 16:44:52;;;;;;;1.92;0.60;;;537.60;1561.60;;;;;;5129852;27;20139;-58
2022/07/11 16:47:18;;;;;;;3.63;0.82;;;563.20;1433.60;;;;;;5130693;27;20039;-58
2022/07/11 16:49:43;;;;;;;3.25;0.60;;;563.20;1408.00;;;;;;5130429;27;20043;-59
2022/07/11 16:52:09;;;;;;;4.55;0.70;;;563.20;1587.20;;;;;;5130599;27;20042;-57
2022/07/11 16:54:37;;;;;;;2.55;0.77;;;588.80;1536.00;;;;;;5129907;27;20678;-58
2022/07/11 16:57:04;;;;;;;2.60;1.00;;;563.20;1356.80;;;;;;5129932;27;20130;-58
2022/07/11 16:59:29;;;;;;;4.20;0.80;;;563.20;1356.80;;;;;;5128838;27;20505;-58
2022/07/11 17:01:55;;;;;;;2.13;0.70;;;563.20;1484.80;;;;;;5130930;27;20073;-61
2022/07/11 17:04:21;;;;;;;2.50;0.73;;;563.20;1356.80;;;;;;5127131;27;20564;-58
2022/07/11 17:06:47;;;;;;;4.72;0.93;;;563.20;1408.00;;;;;;5128553;27;20046;-58
2022/07/11 17:09:13;;;;;;;5.75;0.63;;;563.20;1510.40;;;;;;5128849;27;20054;-57
2022/07/11 17:11:38;;;;;;;6.97;1.00;;;563.20;1382.40;;;;;;5129501;27;20623;-57
2022/07/11 17:14:04;;;;;;;1.48;0.63;;;563.20;1331.20;;;;;;5128267;27;20134;-58
2022/07/11 17:16:30;;;;;;;6.57;0.80;;;563.20;1408.00;;;;;;5131156;27;20074;-58
2022/07/11 17:18:56;;;;;;;0.70;0.50;;;563.20;1356.80;;;;;;5128016;27;20128;-58
2022/07/11 17:21:22;;;;;;;4.30;0.85;;;563.20;1382.40;;;;;;5128950;27;20108;-57
2022/07/11 17:23:48;;;;;;;1.75;0.68;;;563.20;1561.60;;;;;;5129231;27;20073;-57
2022/07/11 17:26:15;;;;;;;1.98;0.75;;;563.20;1382.40;;;;;;5128746;27;20073;-58
2022/07/11 17:28:41;;;;;;;2.75;0.70;;;563.20;1536.00;;;;;;5127212;27;20086;-57
2022/07/11 17:31:07;;;;;;;3.20;0.75;;;563.20;1382.40;;;;;;5118776;27;20063;-58
2022/07/11 17:33:32;;;;;;;1.63;0.60;;;563.20;1561.60;;;;;;5127495;27;20073;-57
2022/07/11 17:35:58;;;;;;;4.57;0.63;;;563.20;1331.20;;;;;;5127796;27;20103;-57
2022/07/11 17:38:24;;;;;;;2.05;0.68;;;563.20;1356.80;;;;;;5128259;27;20100;-57
2022/07/11 17:40:51;;;;;;;1.80;0.70;;;563.20;1433.60;;;;;;5128860;27;20034;-57
2022/07/11 17:43:16;;;;;;;3.33;0.85;;;563.20;1331.20;;;;;;5126987;27;20132;-60
2022/07/11 17:45:43;;;;;;;2.47;0.60;;;563.20;1356.80;;;;;;5111412;27;20055;-58
2022/07/11 17:48:11;;;;;;;1.38;0.57;;;563.20;1331.20;;;;;;5127865;27;20030;-58
2022/07/11 17:50:42;;;;;;;1.27;0.60;;;563.20;1433.60;;;;;;5127569;27;20758;-58
2022/07/11 17:53:08;;;;;;;1.13;0.60;;;563.20;1331.20;;;;;;5130844;27;20095;-57
2022/07/11 17:55:34;;;;;;;2.15;0.70;;;640.00;1484.80;;;;;;5132381;27;20047;-58
2022/07/11 17:58:00;;;;;;;1.55;0.65;;;563.20;1356.80;;;;;;5107925;27;20039;-57
2022/07/11 18:00:26;;;;;;;3.05;0.70;;;563.20;1408.00;;;;;;5107453;27;20547;-57
2022/07/11 18:02:51;;;;;;;1.20;0.60;;;563.20;1408.00;;;;;;5106907;27;20118;-57
2022/07/11 18:05:18;;;;;;;1.13;0.52;;;563.20;1331.20;;;;;;5107716;27;20039;-59
2022/07/11 18:07:45;;;;;;;2.50;0.70;;;563.20;1561.60;;;;;;5106131;27;20047;-58
2022/07/11 18:10:11;;;;;;;1.13;0.63;;;563.20;1433.60;;;;;;5107768;27;20104;-57
2022/07/11 18:12:38;;;;;;;3.72;0.75;;;563.20;1331.20;;;;;;5106927;27;20061;-57
2022/07/11 18:15:06;;;;;;;2.92;0.77;;;563.20;1331.20;;;;;;5107662;27;20047;-57
2022/07/11 18:17:33;;;;;;;1.40;0.65;;;563.20;1331.20;;;;;;5107285;27;22001;-58
2022/07/11 18:19:59;;;;;;;2.15;0.60;;;614.40;1382.40;;;;;;5106236;27;20069;-58
2022/07/11 18:22:25;;;;;;;2.70;0.65;;;563.20;1331.20;;;;;;5089580;27;20040;-58
2022/07/11 18:24:52;;;;;;;1.48;0.43;;;563.20;1382.40;;;;;;5107679;27;20161;-58
2022/07/11 18:27:17;;;;;;;3.78;0.75;;;614.40;1382.40;;;;;;5105270;27;20050;-58
2022/07/11 18:29:43;;;;;;;0.93;0.60;;;563.20;1561.60;;;;;;5107110;27;20051;-57
2022/07/11 18:32:09;;;;;;;0.80;0.50;;;563.20;1356.80;;;;;;5107536;27;20046;-57
2022/07/11 18:34:36;;;;;;;1.10;0.47;;;563.20;1331.20;;;;;;5106394;27;20054;-57
2022/07/11 18:37:02;;;;;;;1.20;0.50;;;563.20;1305.60;;;;;;5107058;27;20541;-57
2022/07/11 18:42:12;;;;;;;1.50;0.50;;;563.20;1408.00;;;;;;5107010;27;22320;-58
2022/07/11 18:44:38;;;;;;;1.38;0.60;;;563.20;1382.40;;;;;;5107028;27;20039;-57
2022/07/11 18:47:05;;;;;;;1.33;0.65;;;563.20;1408.00;;;;;;5106790;27;20089;-58
2022/07/11 18:49:31;;;;;;;3.60;0.70;;;563.20;1331.20;;;;;;5105717;27;20043;-58
2022/07/11 18:52:00;;;;;;;0.70;0.60;;;563.20;1356.80;;;;;;5107884;27;20048;-58
2022/07/11 18:54:27;;;;;;;1.00;0.50;;;563.20;1408.00;;;;;;5105848;27;20046;-57
2022/07/11 18:56:53;;;;;;;1.50;0.68;;;563.20;1433.60;;;;;;5117620;27;20047;-57
2022/07/11 18:59:18;;;;;;;1.92;0.70;;;563.20;1331.20;;;;;;5126870;27;20039;-58
2022/07/11 19:01:44;;;;;;;1.60;0.50;;;563.20;1561.60;;;;;;5127365;27;20107;-58
2022/07/11 19:04:10;;;;;;;2.95;0.90;;;563.20;1561.60;;;;;;5110319;27;20473;-57
2022/07/11 19:06:37;;;;;;;0.82;0.63;;;563.20;1587.20;;;;;;5125933;27;20042;-58
2022/07/11 19:09:04;;;;;;;2.33;0.80;;;665.60;1254.40;;;;;;5125967;27;20059;-58
2022/07/11 19:11:29;;;;;;;2.28;0.80;;;563.20;1536.00;;;;;;5127275;27;20147;-57
2022/07/11 19:13:55;;;;;;;1.95;0.75;;;563.20;1561.60;;;;;;5125633;27;20150;-60
2022/07/11 19:16:22;;;;;;;1.27;0.68;;;563.20;1331.20;;;;;;5127253;27;20437;-57
2022/07/11 19:18:48;;;;;;;1.38;0.65;;;563.20;1331.20;;;;;;5125959;27;20438;-57
2022/07/11 19:21:14;;;;;;;1.25;0.80;;;563.20;1382.40;;;;;;5125756;27;20051;-57
2022/07/11 19:23:40;;;;;;;1.88;0.80;;;563.20;1356.80;;;;;;5126034;27;20047;-57
2022/07/11 19:26:07;;;;;;;1.95;0.60;;;563.20;1382.40;;;;;;5126228;27;20072;-59
2022/07/11 19:28:34;;;;;;;1.63;0.60;;;563.20;1408.00;;;;;;5126155;27;20146;-57
2022/07/11 19:31:00;;;;;;;1.58;0.80;;;563.20;1433.60;;;;;;5126422;27;20472;-57
2022/07/11 19:33:26;;;;;;;1.65;0.80;;;563.20;1510.40;;;;;;5125046;27;20074;-57
2022/07/11 19:35:52;;;;;;;1.65;0.70;;;563.20;1305.60;;;;;;5127435;27;20073;-57
2022/07/11 19:38:17;;;;;;;2.03;0.70;;;563.20;1459.20;;;;;;5125692;27;20802;-58
2022/07/11 19:40:44;;;;;;;2.58;0.70;;;563.20;1305.60;;;;;;5126980;27;20043;-58
2022/07/11 19:43:13;;;;;;;2.40;0.95;;;563.20;1331.20;;;;;;5125387;27;20848;-57
2022/07/11 19:45:45;;;;;;;1.30;0.80;;;563.20;1587.20;;;;;;5126936;27;20042;-57
2022/07/11 19:48:11;;;;;;;1.20;0.70;;;563.20;1331.20;;;;;;5106467;27;20034;-57
2022/07/11 19:50:41;;;;;;;1.75;0.70;;;563.20;1331.20;;;;;;5125796;27;20070;-57
2022/07/11 19:53:07;;;;;;;1.10;0.80;;;563.20;1331.20;;;;;;5125931;27;20088;-57
2022/07/11 19:58:17;;;;;;;1.50;0.85;;;563.20;1536.00;;;;;;5125394;27;20585;-58
2022/07/11 20:00:44;;;;;;;1.25;0.80;;;563.20;1331.20;;;;;;5126980;27;20087;-57
2022/07/11 20:03:10;;;;;;;4.00;0.77;;;563.20;1331.20;;;;;;5125254;27;20216;-57
2022/07/11 20:05:36;;;;;;;1.75;0.88;;;563.20;1433.60;;;;;;5125258;27;20069;-58
2022/07/11 20:08:03;;;;;;;1.20;0.80;;;563.20;1382.40;;;;;;5126321;27;20103;-59
2022/07/11 20:10:29;;;;;;;2.67;0.70;;;563.20;1408.00;;;;;;5109341;27;20062;-58
2022/07/11 20:12:55;;;;;;;1.23;0.80;;;563.20;1382.40;;;;;;5125094;27;20046;-58
2022/07/11 20:15:21;;;;;;;2.72;0.90;;;588.80;1536.00;;;;;;5125838;27;20454;-58
2022/07/11 20:17:46;;;;;;;1.60;0.90;;;563.20;1356.80;;;;;;5126283;27;20381;-58
2022/07/11 20:20:12;;;;;;;1.52;0.80;;;563.20;1510.40;;;;;;5111875;27;20039;-57
2022/07/11 20:22:38;;;;;;;2.25;1.10;;;563.20;1484.80;;;;;;5128476;27;20046;-62
2022/07/11 20:25:04;;;;;;;3.40;0.90;;;563.20;1536.00;;;;;;5129999;27;20445;-61
2022/07/11 20:27:31;;;;;;;1.27;0.82;;;563.20;1331.20;;;;;;5127490;27;20047;-61
2022/07/11 20:29:57;;;;;;;2.85;1.10;;;563.20;1408.00;;;;;;5112245;27;20035;-61
2022/07/11 20:32:23;;;;;;;3.15;1.35;;;614.40;1331.20;;;;;;5128845;27;20031;-61
2022/07/11 20:34:52;;;;;;;1.92;1.10;;;563.20;1536.00;;;;;;5129316;27;20047;-61
2022/07/11 20:37:19;;;;;;;2.20;1.33;;;563.20;1331.20;;;;;;5128964;27;20054;-62
2022/07/11 20:39:45;;;;;;;2.15;1.38;;;563.20;1356.80;;;;;;5129917;27;20447;-60
2022/07/11 20:42:11;;;;;;;2.38;1.70;;;640.00;1510.40;;;;;;5128899;27;20241;-61
2022/07/11 20:44:36;;;;;;;2.92;1.50;;;563.20;1408.00;;;;;;5130242;27;20051;-61
2022/07/11 20:47:02;;;;;;;3.45;1.50;;;563.20;1408.00;;;;;;5110746;27;20051;-62
2022/07/11 20:49:28;;;;;;;2.40;1.20;;;588.80;1305.60;;;;;;5128206;27;20046;-62